createdAt,value
2018-01-10T00:00:38.942Z,997.3613
2018-01-10T00:01:39.323Z,997.4068
2018-01-10T00:02:41.021Z,997.4068
2018-01-10T00:03:40.043Z,997.4235
2018-01-10T00:04:40.058Z,997.353
2018-01-10T00:05:46.085Z,997.444
2018-01-10T00:06:40.663Z,997.4388
2018-01-10T00:07:37.778Z,997.409
2018-01-10T00:08:39.659Z,997.3923
2018-01-10T00:09:38.724Z,997.3923
2018-01-10T00:10:42.178Z,997.4276
2018-01-10T00:11:41.899Z,997.468
2018-01-10T00:12:41.492Z,997.4927
2018-01-10T00:13:40.508Z,997.5095
2018-01-10T00:14:41.726Z,997.4588
2018-01-10T00:15:42.312Z,997.4973
2018-01-10T00:16:41.089Z,997.4318
2018-01-10T00:17:39.575Z,997.4568
2018-01-10T00:18:48.856Z,997.4351
2018-01-10T00:19:39.339Z,997.4388
2018-01-10T00:20:39.104Z,997.3793
2018-01-10T00:21:45.172Z,997.3594
2018-01-10T00:22:39.268Z,997.3022
2018-01-10T00:23:42.474Z,997.3126
2018-01-10T00:24:42.266Z,997.262
2018-01-10T00:25:43.840Z,997.2318
2018-01-10T00:26:39.477Z,997.1936
2018-01-10T00:27:40.296Z,997.1584
2018-01-10T00:28:39.511Z,997.1584
2018-01-10T00:29:39.593Z,997.0776
2018-01-10T00:30:41.084Z,997.091
2018-01-10T00:31:40.035Z,996.9833
2018-01-10T00:32:38.573Z,996.9926
2018-01-10T00:33:38.803Z,996.9304
2018-01-10T00:34:38.564Z,996.8984
2018-01-10T00:35:39.015Z,996.9368
2018-01-10T00:36:40.341Z,996.9721
2018-01-10T00:37:40.672Z,997.0093
2018-01-10T00:38:47.555Z,996.9368
2018-01-10T00:39:38.711Z,996.942
2018-01-10T00:40:45.725Z,996.9182
2018-01-10T00:41:38.839Z,996.9253
2018-01-10T00:42:40.809Z,996.9099
2018-01-10T00:43:42.213Z,996.863
2018-01-10T00:44:41.089Z,996.8901
2018-01-10T00:45:40.088Z,996.8143
2018-01-10T00:46:46.418Z,996.8143
2018-01-10T00:47:39.002Z,996.8124
2018-01-10T00:48:46.291Z,996.774
2018-01-10T00:49:39.793Z,996.7252
2018-01-10T00:50:39.688Z,996.7089
2018-01-10T00:51:38.782Z,996.7823
2018-01-10T00:52:42.836Z,996.863
2018-01-10T00:53:43.870Z,996.8682
2018-01-10T00:54:41.558Z,996.8651
2018-01-10T00:55:46.225Z,996.9086
2018-01-10T00:56:50.078Z,996.9407
2018-01-10T00:57:40.949Z,996.916
2018-01-10T00:58:42.099Z,996.9137
2018-01-10T00:59:39.882Z,996.9458
2018-01-10T01:00:38.719Z,996.889
2018-01-10T01:01:39.176Z,996.9002
2018-01-10T01:02:40.356Z,996.9407
2018-01-10T01:03:39.932Z,996.949
2018-01-10T01:04:41.267Z,996.8849
2018-01-10T01:05:39.235Z,996.8849
2018-01-10T01:06:40.549Z,996.9253
2018-01-10T01:07:40.896Z,996.9221
2018-01-10T01:08:39.752Z,996.9573
2018-01-10T01:09:39.160Z,997.0029
2018-01-10T01:10:40.641Z,997.0061
2018-01-10T01:11:38.865Z,997.0715
2018-01-10T01:12:38.479Z,997.0798
2018-01-10T01:13:40.414Z,997.1254
2018-01-10T01:14:42.873Z,997.137
2018-01-10T01:15:40.181Z,997.1471
2018-01-10T01:16:38.894Z,997.137
2018-01-10T01:17:41.080Z,997.1068
2018-01-10T01:18:39.377Z,997.0965
2018-01-10T01:19:40.137Z,997.0901
2018-01-10T01:20:41.587Z,997.1273
2018-01-10T01:21:48.264Z,997.1254
2018-01-10T01:22:39.202Z,997.144
2018-01-10T01:23:39.565Z,997.1305
2018-01-10T01:24:39.440Z,997.1138
2018-01-10T01:25:41.486Z,997.0901
2018-01-10T01:26:43.518Z,997.1068
2018-01-10T01:27:39.118Z,997.1035
2018-01-10T01:28:38.102Z,997.1305
2018-01-10T01:29:43.595Z,997.0901
2018-01-10T01:30:44.365Z,997.0818
2018-01-10T01:31:44.018Z,997.0683
2018-01-10T01:32:40.750Z,997.0849
2018-01-10T01:33:44.241Z,997.1068
2018-01-10T01:34:43.935Z,997.0798
2018-01-10T01:35:49.735Z,997.1708
2018-01-10T01:36:44.169Z,997.1254
2018-01-10T01:37:43.527Z,997.1708
2018-01-10T01:38:39.779Z,997.2433
2018-01-10T01:39:39.022Z,997.1876
2018-01-10T01:40:47.790Z,997.1946
2018-01-10T01:41:39.706Z,997.1677
2018-01-10T01:42:40.076Z,997.1978
2018-01-10T01:43:46.296Z,997.1876
2018-01-10T01:44:41.958Z,997.1606
2018-01-10T01:45:43.805Z,997.1504
2018-01-10T01:46:40.645Z,997.1555
2018-01-10T01:47:40.541Z,997.1504
2018-01-10T01:48:42.900Z,997.1741
2018-01-10T01:49:56.305Z,997.1407
2018-01-10T01:50:48.328Z,997.1356
2018-01-10T01:51:38.840Z,997.1202
2018-01-10T01:52:40.169Z,997.0869
2018-01-10T01:53:44.682Z,997.0971
2018-01-10T01:54:40.039Z,997.092
2018-01-10T01:55:39.217Z,997.0651
2018-01-10T01:56:49.648Z,997.0703
2018-01-10T01:57:48.739Z,997.0599
2018-01-10T01:58:42.342Z,997.1004
2018-01-10T01:59:44.430Z,997.1677
2018-01-10T02:00:41.615Z,997.1644
2018-01-10T02:01:48.942Z,997.1882
2018-01-10T02:02:43.860Z,997.183
2018-01-10T02:03:40.189Z,997.2099
2018-01-10T02:04:40.217Z,997.2824
2018-01-10T02:05:40.733Z,997.3093
2018-01-10T02:06:39.147Z,997.2285
2018-01-10T02:07:42.113Z,997.2526
2018-01-10T02:08:41.915Z,997.269
2018-01-10T02:09:42.238Z,997.1801
2018-01-10T02:10:40.956Z,997.1852
2018-01-10T02:11:39.547Z,997.1852
2018-01-10T02:12:43.009Z,997.1477
2018-01-10T02:13:40.298Z,997.123
2018-01-10T02:14:45.777Z,997.1013
2018-01-10T02:15:41.574Z,997.0506
2018-01-10T02:16:40.301Z,996.9903
2018-01-10T02:17:39.691Z,996.9634
2018-01-10T02:18:40.100Z,996.9935
2018-01-10T02:19:40.640Z,996.9634
2018-01-10T02:20:41.146Z,996.9987
2018-01-10T02:21:41.290Z,996.923
2018-01-10T02:22:40.157Z,996.896
2018-01-10T02:23:41.141Z,996.95
2018-01-10T02:24:45.864Z,996.8569
2018-01-10T02:25:45.347Z,996.8724
2018-01-10T02:26:40.693Z,996.8134
2018-01-10T02:27:40.681Z,996.7813
2018-01-10T02:28:44.172Z,996.7679
2018-01-10T02:29:40.422Z,996.7429
2018-01-10T02:30:39.378Z,996.6774
2018-01-10T02:31:45.540Z,996.7563
2018-01-10T02:32:41.094Z,996.7159
2018-01-10T02:33:43.555Z,996.748
2018-01-10T02:34:39.163Z,996.7057
2018-01-10T02:35:39.307Z,996.7159
2018-01-10T02:36:42.518Z,996.7076
2018-01-10T02:37:39.233Z,996.6537
2018-01-10T02:38:41.054Z,996.6755
2018-01-10T02:39:41.292Z,996.6942
2018-01-10T02:40:38.997Z,996.6403
2018-01-10T02:41:49.754Z,996.5999
2018-01-10T02:42:40.084Z,996.6102
2018-01-10T02:43:39.231Z,996.5832
2018-01-10T02:44:40.297Z,996.6216
2018-01-10T02:45:39.883Z,996.5781
2018-01-10T02:46:43.484Z,996.6082
2018-01-10T02:47:40.608Z,996.571
2018-01-10T02:48:41.325Z,996.5896
2018-01-10T02:49:39.768Z,996.5729
2018-01-10T02:50:41.671Z,996.5864
2018-01-10T02:51:40.232Z,996.5594
2018-01-10T02:52:47.735Z,996.5159
2018-01-10T02:53:42.903Z,996.5243
2018-01-10T02:54:55.001Z,996.5294
2018-01-10T02:55:38.913Z,996.5223
2018-01-10T02:56:46.856Z,996.5659
2018-01-10T02:57:39.266Z,996.5131
2018-01-10T02:58:41.886Z,996.5368
2018-01-10T02:59:39.577Z,996.5515
2018-01-10T03:00:40.635Z,996.4604
2018-01-10T03:01:41.341Z,996.4835
2018-01-10T03:02:41.045Z,996.5114
2018-01-10T03:03:40.127Z,996.4556
2018-01-10T03:04:40.005Z,996.3998
2018-01-10T03:05:38.474Z,996.4165
2018-01-10T03:06:43.395Z,996.4277
2018-01-10T03:07:38.943Z,996.4174
2018-01-10T03:08:38.827Z,996.461
2018-01-10T03:09:41.776Z,996.4424
2018-01-10T03:10:38.465Z,996.454
2018-01-10T03:11:38.526Z,996.5514
2018-01-10T03:12:38.955Z,996.511
2018-01-10T03:13:40.904Z,996.5309
2018-01-10T03:14:41.421Z,996.6198
2018-01-10T03:15:38.948Z,996.5774
2018-01-10T03:16:39.746Z,996.6614
2018-01-10T03:17:41.100Z,996.7993
2018-01-10T03:18:46.495Z,996.8532
2018-01-10T03:19:39.189Z,996.8999
2018-01-10T03:20:46.307Z,996.8596
2018-01-10T03:21:41.037Z,996.8224
2018-01-10T03:22:40.880Z,996.8438
2018-01-10T03:23:39.714Z,996.7226
2018-01-10T03:24:40.261Z,996.7258
2018-01-10T03:25:44.157Z,996.697
2018-01-10T03:26:38.941Z,996.7457
2018-01-10T03:27:46.658Z,996.7844
2018-01-10T03:28:40.285Z,996.7576
2018-01-10T03:29:37.930Z,996.7473
2018-01-10T03:30:38.866Z,996.7287
2018-01-10T03:31:44.714Z,996.8448
2018-01-10T03:32:39.645Z,996.7723
2018-01-10T03:33:52.346Z,996.743
2018-01-10T03:34:39.151Z,996.77
2018-01-10T03:35:40.333Z,996.7598
2018-01-10T03:36:45.561Z,996.7732
2018-01-10T03:37:40.929Z,996.7327
2018-01-10T03:38:38.303Z,996.7526
2018-01-10T03:39:39.642Z,996.709
2018-01-10T03:40:39.169Z,996.7173
2018-01-10T03:41:41.042Z,996.7205
2018-01-10T03:42:43.244Z,996.7154
2018-01-10T03:43:41.993Z,996.673
2018-01-10T03:44:40.867Z,996.673
2018-01-10T03:45:39.126Z,996.7218
2018-01-10T03:46:40.097Z,996.7269
2018-01-10T03:47:38.542Z,996.7112
2018-01-10T03:48:40.046Z,996.7321
2018-01-10T03:49:43.826Z,996.6356
2018-01-10T03:50:39.576Z,996.6624
2018-01-10T03:51:42.114Z,996.5983
2018-01-10T03:52:40.511Z,996.5796
2018-01-10T03:53:45.333Z,996.5694
2018-01-10T03:54:40.252Z,996.5496
2018-01-10T03:55:41.864Z,996.5848
2018-01-10T03:56:41.094Z,996.5424
2018-01-10T03:57:40.156Z,996.5476
2018-01-10T03:58:43.169Z,996.5135
2018-01-10T03:59:45.098Z,996.5115
2018-01-10T04:00:39.531Z,996.4526
2018-01-10T04:01:39.137Z,996.4339
2018-01-10T04:02:38.924Z,996.4846
2018-01-10T04:03:41.529Z,996.3935
2018-01-10T04:04:40.873Z,996.411
2018-01-10T04:05:40.361Z,996.3468
2018-01-10T04:06:39.818Z,996.4193
2018-01-10T04:07:41.570Z,996.4681
2018-01-10T04:08:41.740Z,996.4567
2018-01-10T04:09:40.186Z,996.4297
2018-01-10T04:10:38.270Z,996.3591
2018-01-10T04:11:44.307Z,996.4399
2018-01-10T04:12:40.657Z,996.3829
2018-01-10T04:13:39.176Z,996.4316
2018-01-10T04:14:41.724Z,996.4557
2018-01-10T04:15:40.350Z,996.4628
2018-01-10T04:16:41.160Z,996.3768
2018-01-10T04:17:39.665Z,996.4018
2018-01-10T04:18:38.747Z,996.3851
2018-01-10T04:19:39.310Z,996.3716
2018-01-10T04:20:39.919Z,996.353
2018-01-10T04:21:39.660Z,996.3935
2018-01-10T04:22:41.679Z,996.4172
2018-01-10T04:23:41.138Z,996.3871
2018-01-10T04:24:41.643Z,996.4026
2018-01-10T04:25:40.254Z,996.4128
2018-01-10T04:26:41.158Z,996.3942
2018-01-10T04:27:43.186Z,996.3828
2018-01-10T04:28:39.256Z,996.4119
2018-01-10T04:29:41.597Z,996.4148
2018-01-10T04:30:40.884Z,996.3279
2018-01-10T04:31:43.370Z,996.3754
2018-01-10T04:32:40.055Z,996.3723
2018-01-10T04:33:40.571Z,996.3658
2018-01-10T04:34:43.530Z,996.3761
2018-01-10T04:35:42.009Z,996.424
2018-01-10T04:36:41.600Z,996.3887
2018-01-10T04:37:41.577Z,996.3906
2018-01-10T04:38:41.080Z,996.3871
2018-01-10T04:39:40.063Z,996.3974
2018-01-10T04:40:43.261Z,996.3974
2018-01-10T04:41:43.281Z,996.3644
2018-01-10T04:42:41.335Z,996.3778
2018-01-10T04:43:45.173Z,996.4048
2018-01-10T04:44:41.877Z,996.3611
2018-01-10T04:45:41.417Z,996.3611
2018-01-10T04:46:45.253Z,996.312
2018-01-10T04:47:40.881Z,996.3423
2018-01-10T04:48:38.111Z,996.3499
2018-01-10T04:49:39.252Z,996.358
2018-01-10T04:50:39.683Z,996.3766
2018-01-10T04:51:39.519Z,996.3176
2018-01-10T04:52:40.073Z,996.3134
2018-01-10T04:53:42.474Z,996.2607
2018-01-10T04:54:43.580Z,996.2907
